Time;durP1;ratioP1;P1;durP2;ratioP2;P2;SDS_P1;SDS_P2;PMS_P1;PMS_P2;Temp;Humidity;BMP_temperature;BMP_pressure;BME280_temperature;BME280_humidity;BME280_pressure;Samples;Min_cycle;Max_cycle;Signal;HPM_P1;HPM_P2
2022/11/27 00:00:47;;;;;;;24.27;11.17;;;4.30;99.90;;;;;;5069092;28;20200;-95
2022/11/27 00:03:14;;;;;;;22.90;11.67;;;4.30;99.90;;;;;;5062070;28;20254;-93
2022/11/27 00:05:51;;;;;;;23.97;11.97;;;4.70;99.90;;;;;;5062747;28;20234;-95
2022/11/27 00:08:18;;;;;;;25.83;12.43;;;4.60;99.90;;;;;;5069817;28;20271;-94
2022/11/27 00:10:45;;;;;;;23.73;12.17;;;4.50;99.90;;;;;;5063502;28;20214;-94
2022/11/27 00:13:12;;;;;;;23.03;11.93;;;4.50;99.90;;;;;;5063578;28;20222;-93
2022/11/27 00:15:39;;;;;;;23.17;12.83;;;4.50;99.90;;;;;;5063035;28;20266;-92
2022/11/27 00:18:06;;;;;;;25.53;13.00;;;4.70;99.90;;;;;;5071036;28;20199;-93
2022/11/27 00:20:33;;;;;;;26.23;13.73;;;4.80;99.90;;;;;;5076818;28;20201;-94
2022/11/27 00:23:01;;;;;;;25.20;13.73;;;4.90;99.90;;;;;;5052085;28;20222;-93
2022/11/27 00:25:28;;;;;;;28.17;14.40;;;5.10;99.90;;;;;;5066887;28;20324;-93
2022/11/27 00:27:54;;;;;;;24.37;13.07;;;5.10;99.90;;;;;;5064144;28;20258;-92
2022/11/27 00:30:21;;;;;;;24.47;13.60;;;5.20;99.90;;;;;;5070989;28;20274;-93
2022/11/27 00:32:48;;;;;;;22.60;12.60;;;5.10;99.90;;;;;;5074061;28;20238;-92
2022/11/27 00:35:15;;;;;;;25.63;13.53;;;5.00;99.90;;;;;;5066087;28;20271;-94
2022/11/27 00:37:42;;;;;;;23.87;12.33;;;4.90;99.90;;;;;;5076351;28;20179;-95
2022/11/27 00:40:12;;;;;;;23.37;13.20;;;5.00;99.90;;;;;;5084842;28;20263;-95
2022/11/27 00:42:39;;;;;;;22.70;11.83;;;5.10;99.90;;;;;;5079936;28;20207;-92
2022/11/27 00:45:06;;;;;;;25.00;14.57;;;5.20;99.90;;;;;;5075073;28;20219;-95
2022/11/27 00:47:33;;;;;;;21.47;12.07;;;5.10;99.90;;;;;;5064328;28;20187;-93
2022/11/27 00:50:00;;;;;;;24.53;12.50;;;4.90;99.90;;;;;;5072568;28;20214;-93
2022/11/27 00:52:27;;;;;;;20.37;11.40;;;4.70;99.90;;;;;;5103019;23;20294;-79
2022/11/27 00:54:54;;;;;;;22.07;11.40;;;4.60;99.90;;;;;;5065392;28;20244;-79
2022/11/27 00:57:22;;;;;;;20.13;11.10;;;4.60;99.90;;;;;;5065617;28;20210;-79
2022/11/27 00:59:48;;;;;;;20.73;11.80;;;4.50;99.90;;;;;;5067667;28;20228;-79
2022/11/27 01:02:15;;;;;;;22.37;11.27;;;4.30;99.90;;;;;;5065325;28;20203;-79
2022/11/27 01:04:45;;;;;;;22.23;11.57;;;4.30;99.90;;;;;;5074348;28;20203;-79
2022/11/27 01:07:12;;;;;;;22.47;10.87;;;4.20;99.90;;;;;;5071581;28;20280;-79
2022/11/27 01:09:39;;;;;;;23.40;11.73;;;4.30;99.90;;;;;;5059417;28;20257;-79
2022/11/27 01:12:06;;;;;;;24.63;12.80;;;4.20;99.90;;;;;;5072204;28;20202;-79
2022/11/27 01:14:34;;;;;;;24.07;11.33;;;4.30;99.90;;;;;;5071646;28;20205;-79
2022/11/27 01:17:01;;;;;;;22.93;11.67;;;4.50;99.90;;;;;;5066262;28;20285;-79
2022/11/27 01:19:28;;;;;;;25.20;12.57;;;4.60;99.90;;;;;;5058463;28;20226;-80
2022/11/27 01:21:54;;;;;;;24.80;11.63;;;4.60;99.90;;;;;;5060182;28;20199;-78
2022/11/27 01:24:21;;;;;;;23.00;12.33;;;4.70;99.90;;;;;;5072158;28;20209;-79
2022/11/27 01:26:49;;;;;;;20.90;10.77;;;4.70;99.90;;;;;;5060090;28;20208;-79
2022/11/27 01:29:15;;;;;;;21.23;11.27;;;4.60;99.90;;;;;;5073378;28;20226;-80
2022/11/27 01:31:44;;;;;;;19.33;10.80;;;4.60;99.90;;;;;;5075011;28;20634;-80
2022/11/27 01:34:14;;;;;;;23.10;10.43;;;4.50;99.90;;;;;;5073713;28;20209;-80
2022/11/27 01:36:41;;;;;;;21.30;10.70;;;4.40;99.90;;;;;;5073081;28;20217;-79
2022/11/27 01:39:13;;;;;;;20.30;10.80;;;4.30;99.90;;;;;;5075177;28;20219;-79
2022/11/27 01:41:40;;;;;;;22.57;10.90;;;4.20;99.90;;;;;;5069916;28;20290;-79
2022/11/27 01:44:40;;;;;;;21.10;11.37;;;4.20;99.90;;;;;;5061436;28;20664;-79
2022/11/27 01:47:14;;;;;;;21.77;12.03;;;4.30;99.90;;;;;;5063489;28;20205;-79
2022/11/27 01:49:44;;;;;;;23.43;12.13;;;4.40;99.90;;;;;;5066042;28;20745;-80
2022/11/27 01:52:13;;;;;;;25.20;11.63;;;4.40;99.90;;;;;;5066585;28;20194;-79
2022/11/27 01:54:45;;;;;;;26.47;12.47;;;4.60;99.90;;;;;;5069375;28;20209;-79
2022/11/27 01:57:15;;;;;;;24.63;11.43;;;4.60;99.90;;;;;;5073613;28;20274;-80
2022/11/27 01:59:42;;;;;;;23.17;12.37;;;4.60;99.90;;;;;;5064670;28;20699;-79
2022/11/27 02:02:11;;;;;;;24.77;12.90;;;4.60;99.90;;;;;;5065357;28;20195;-79
2022/11/27 02:04:37;;;;;;;23.03;11.50;;;4.60;99.90;;;;;;5063553;28;20212;-79
2022/11/27 02:07:04;;;;;;;20.60;11.80;;;4.40;99.90;;;;;;5057840;28;20240;-79
2022/11/27 02:09:31;;;;;;;22.77;11.73;;;4.20;99.90;;;;;;5065056;28;20229;-79
2022/11/27 02:12:05;;;;;;;23.30;11.13;;;4.20;99.90;;;;;;5067139;28;20226;-79
2022/11/27 02:14:37;;;;;;;23.03;12.73;;;4.20;99.90;;;;;;5065815;28;20660;-79
2022/11/27 02:17:10;;;;;;;24.20;11.83;;;4.00;99.90;;;;;;5065799;28;20282;-79
2022/11/27 02:19:54;;;;;;;20.97;10.43;;;3.80;99.90;;;;;;5072411;28;20222;-80
2022/11/27 02:22:33;;;;;;;21.00;11.17;;;3.80;99.90;;;;;;5073395;28;20202;-79
2022/11/27 02:25:06;;;;;;;21.33;12.07;;;4.10;99.90;;;;;;5065413;28;20605;-79
2022/11/27 02:27:51;;;;;;;22.10;10.93;;;4.00;99.90;;;;;;5060535;28;20194;-79
2022/11/27 02:30:20;;;;;;;21.80;10.83;;;4.00;99.90;;;;;;5062769;28;20209;-79
2022/11/27 02:32:51;;;;;;;22.20;11.50;;;3.80;99.90;;;;;;5073516;28;20202;-79
2022/11/27 02:35:23;;;;;;;18.63;10.03;;;3.90;99.90;;;;;;5065896;28;20684;-79
2022/11/27 02:37:53;;;;;;;21.40;10.60;;;3.70;99.90;;;;;;5072423;28;20237;-78
2022/11/27 02:40:27;;;;;;;23.37;11.50;;;3.70;99.90;;;;;;5073767;28;20197;-79
2022/11/27 02:42:57;;;;;;;24.53;11.90;;;3.70;99.90;;;;;;5067952;28;20198;-78
2022/11/27 02:45:30;;;;;;;23.13;11.10;;;4.10;99.90;;;;;;5063432;28;20781;-79
2022/11/27 02:47:57;;;;;;;23.73;10.77;;;3.70;99.90;;;;;;5063540;28;20687;-79
2022/11/27 02:50:26;;;;;;;22.37;10.83;;;3.60;99.90;;;;;;5070092;28;20229;-79
2022/11/27 02:52:58;;;;;;;22.27;11.67;;;3.60;99.90;;;;;;5067855;28;20585;-79
2022/11/27 02:55:30;;;;;;;23.27;10.73;;;3.50;99.90;;;;;;5073179;28;20191;-78
2022/11/27 02:57:59;;;;;;;23.00;11.77;;;3.50;99.90;;;;;;5058147;28;20223;-78
2022/11/27 03:00:28;;;;;;;24.73;12.87;;;3.60;99.90;;;;;;5062063;28;20205;-79
2022/11/27 03:02:59;;;;;;;22.03;12.67;;;3.60;99.90;;;;;;5068913;28;20209;-78
2022/11/27 03:05:29;;;;;;;22.23;13.00;;;3.60;99.90;;;;;;5064963;28;20213;-78
2022/11/27 03:08:01;;;;;;;24.13;12.23;;;3.60;99.90;;;;;;5072047;28;20219;-79
2022/11/27 03:10:33;;;;;;;23.83;12.73;;;3.50;99.90;;;;;;5057268;28;20218;-79
2022/11/27 03:13:02;;;;;;;22.73;11.47;;;3.50;99.90;;;;;;5065931;28;20191;-79
2022/11/27 03:15:39;;;;;;;26.07;12.50;;;3.60;99.90;;;;;;5066801;28;20205;-78
2022/11/27 03:18:15;;;;;;;22.47;10.93;;;3.50;99.90;;;;;;5062324;28;20224;-79
2022/11/27 03:20:45;;;;;;;20.90;10.60;;;3.70;99.90;;;;;;5065415;28;20197;-79
2022/11/27 03:23:12;;;;;;;21.73;10.73;;;3.60;99.90;;;;;;5069280;28;20199;-79
2022/11/27 03:25:39;;;;;;;20.63;10.57;;;3.90;99.90;;;;;;5075382;28;20678;-79
2022/11/27 03:28:09;;;;;;;19.43;9.87;;;3.80;99.90;;;;;;5076786;28;20315;-78
2022/11/27 03:30:37;;;;;;;21.97;10.60;;;3.60;99.90;;;;;;5070321;28;20210;-78
2022/11/27 03:33:04;;;;;;;22.50;10.53;;;3.60;99.90;;;;;;5076665;28;20210;-79
2022/11/27 03:35:31;;;;;;;20.27;10.43;;;3.40;99.90;;;;;;5065834;28;20198;-78
2022/11/27 03:37:58;;;;;;;19.37;9.70;;;3.50;99.90;;;;;;5060714;28;20762;-78
2022/11/27 03:40:30;;;;;;;21.33;10.73;;;3.60;99.90;;;;;;5074742;28;20195;-78
2022/11/27 03:43:04;;;;;;;19.40;10.97;;;3.50;99.90;;;;;;5069949;28;20202;-79
2022/11/27 03:45:38;;;;;;;17.90;10.50;;;3.50;99.90;;;;;;5058156;28;20252;-78
2022/11/27 03:48:20;;;;;;;18.30;10.60;;;3.50;99.90;;;;;;5060704;28;20229;-78
2022/11/27 03:51:01;;;;;;;20.13;9.30;;;3.50;99.90;;;;;;5068415;28;20227;-78
2022/11/27 03:53:38;;;;;;;20.80;10.07;;;3.60;99.90;;;;;;5072653;28;20206;-79
2022/11/27 03:56:11;;;;;;;19.30;8.97;;;3.50;99.90;;;;;;5066809;28;20645;-79
2022/11/27 03:58:44;;;;;;;18.97;9.23;;;3.40;99.90;;;;;;5068818;28;20232;-79
2022/11/27 04:01:16;;;;;;;21.17;9.70;;;3.40;99.90;;;;;;5074236;28;20197;-78
2022/11/27 04:03:43;;;;;;;19.87;9.70;;;3.30;99.90;;;;;;5065018;28;20218;-78
2022/11/27 04:06:10;;;;;;;17.50;8.33;;;3.30;99.90;;;;;;5062750;28;20202;-78
2022/11/27 04:08:37;;;;;;;19.50;8.90;;;3.40;99.90;;;;;;5076989;28;20284;-78
2022/11/27 04:11:04;;;;;;;16.60;7.80;;;3.30;99.90;;;;;;5065648;28;20712;-79
2022/11/27 04:13:31;;;;;;;19.27;8.27;;;2.90;99.90;;;;;;5066769;28;20236;-78
2022/11/27 04:16:00;;;;;;;17.33;8.20;;;3.00;99.90;;;;;;5059201;28;20206;-78
2022/11/27 04:18:29;;;;;;;17.20;8.17;;;2.80;99.90;;;;;;5074014;28;20226;-78
2022/11/27 04:20:55;;;;;;;18.40;7.60;;;2.90;99.90;;;;;;5075405;28;20208;-78
2022/11/27 04:23:22;;;;;;;17.07;8.60;;;2.80;99.90;;;;;;5069454;28;20215;-78
2022/11/27 04:25:49;;;;;;;18.27;8.33;;;2.70;99.90;;;;;;5071010;28;20205;-79
2022/11/27 04:28:16;;;;;;;18.37;8.73;;;2.70;99.90;;;;;;5072733;28;20237;-79
2022/11/27 04:30:44;;;;;;;15.27;7.70;;;2.70;99.90;;;;;;5075473;28;20218;-79
2022/11/27 04:33:11;;;;;;;17.57;8.00;;;2.70;99.90;;;;;;5063749;28;20285;-79
2022/11/27 04:35:39;;;;;;;18.70;9.70;;;2.80;99.90;;;;;;5056103;28;20693;-79
2022/11/27 04:38:05;;;;;;;17.70;9.53;;;2.70;99.90;;;;;;5070359;28;20305;-79
2022/11/27 04:40:32;;;;;;;18.73;8.30;;;2.60;99.90;;;;;;5064326;28;20191;-79
2022/11/27 04:42:59;;;;;;;19.00;8.33;;;2.60;99.90;;;;;;5063961;28;20213;-78
2022/11/27 04:45:26;;;;;;;15.50;7.87;;;2.70;99.90;;;;;;5054812;28;20205;-79
2022/11/27 04:47:52;;;;;;;15.83;7.47;;;2.60;99.90;;;;;;5067452;28;20313;-78
2022/11/27 04:50:19;;;;;;;15.63;8.60;;;2.50;99.90;;;;;;5068851;28;20215;-78
2022/11/27 04:52:47;;;;;;;17.97;8.37;;;3.10;99.90;;;;;;5072701;28;20210;-78
2022/11/27 04:55:14;;;;;;;17.97;9.10;;;2.90;99.90;;;;;;5065074;28;20211;-79
2022/11/27 04:57:41;;;;;;;17.73;9.07;;;2.90;99.90;;;;;;5061841;28;20198;-79
2022/11/27 05:00:09;;;;;;;16.13;7.70;;;2.90;99.90;;;;;;5068463;28;20191;-79
2022/11/27 05:02:36;;;;;;;18.00;9.23;;;2.80;99.90;;;;;;5070987;28;20244;-78
2022/11/27 05:05:03;;;;;;;15.00;8.00;;;2.70;99.90;;;;;;5075573;28;20204;-79
2022/11/27 05:07:30;;;;;;;14.80;7.63;;;2.60;99.90;;;;;;5057210;28;20230;-79
2022/11/27 05:09:58;;;;;;;17.83;7.77;;;2.80;99.90;;;;;;5070069;28;20242;-78
2022/11/27 05:12:25;;;;;;;15.90;7.93;;;3.20;99.90;;;;;;5072844;28;20203;-79
2022/11/27 05:14:52;;;;;;;15.07;8.93;;;3.20;99.90;;;;;;5065474;28;20646;-79
2022/11/27 05:17:18;;;;;;;13.37;6.70;;;3.00;99.90;;;;;;5058275;28;20198;-78
2022/11/27 05:19:45;;;;;;;20.13;8.30;;;3.10;99.90;;;;;;5073488;28;21211;-79
2022/11/27 05:22:12;;;;;;;13.47;8.00;;;3.10;99.90;;;;;;5071780;28;20564;-78
2022/11/27 05:24:39;;;;;;;15.77;7.63;;;3.50;99.90;;;;;;5064721;28;20198;-79
2022/11/27 05:27:07;;;;;;;16.10;7.80;;;3.50;99.90;;;;;;5074023;28;20212;-79
2022/11/27 05:29:33;;;;;;;16.33;7.47;;;3.50;99.90;;;;;;5069017;28;20222;-79
2022/11/27 05:32:00;;;;;;;16.23;8.23;;;3.80;99.90;;;;;;5071184;28;20198;-79
2022/11/27 05:34:27;;;;;;;15.70;7.93;;;3.60;99.90;;;;;;5071839;28;20198;-79
2022/11/27 05:36:54;;;;;;;15.73;7.63;;;3.40;99.90;;;;;;5073771;28;20202;-79
2022/11/27 05:39:21;;;;;;;14.93;7.90;;;3.40;99.90;;;;;;5071071;28;20222;-79
2022/11/27 05:41:47;;;;;;;13.40;7.60;;;3.80;99.90;;;;;;5068670;28;20206;-79
2022/11/27 05:44:16;;;;;;;15.17;7.33;;;4.00;99.90;;;;;;5068286;28;20212;-79
2022/11/27 05:46:43;;;;;;;16.43;8.20;;;3.70;99.90;;;;;;5051907;28;20663;-79
2022/11/27 05:49:12;;;;;;;16.43;7.93;;;4.00;99.90;;;;;;5071954;28;20857;-79
2022/11/27 05:51:39;;;;;;;15.37;7.93;;;4.30;99.90;;;;;;5060988;28;20218;-79
2022/11/27 05:54:06;;;;;;;17.27;7.83;;;4.40;99.90;;;;;;5070136;28;20778;-79
2022/11/27 05:56:33;;;;;;;15.23;7.47;;;4.50;99.90;;;;;;5062919;28;20195;-79
2022/11/27 05:59:00;;;;;;;17.33;7.13;;;4.50;99.90;;;;;;5065770;28;20612;-79
2022/11/27 06:01:28;;;;;;;14.07;7.23;;;4.50;99.90;;;;;;5071204;28;20198;-79
2022/11/27 06:03:55;;;;;;;16.47;7.70;;;4.60;99.90;;;;;;5072857;28;20202;-79
2022/11/27 06:06:22;;;;;;;14.93;7.20;;;4.60;99.90;;;;;;5068631;28;20305;-79
2022/11/27 06:08:49;;;;;;;13.13;7.27;;;4.50;99.90;;;;;;5064084;28;20246;-79
2022/11/27 06:11:18;;;;;;;17.00;8.77;;;4.60;99.90;;;;;;5073759;28;20308;-79
2022/11/27 06:13:46;;;;;;;15.50;7.67;;;4.90;99.90;;;;;;5073690;28;20640;-79
2022/11/27 06:16:15;;;;;;;14.00;7.57;;;4.70;99.90;;;;;;5072272;28;20223;-79
2022/11/27 06:18:43;;;;;;;15.20;7.37;;;4.90;99.90;;;;;;5068209;28;20902;-79
2022/11/27 06:21:11;;;;;;;14.67;7.33;;;4.60;99.90;;;;;;5072900;28;20199;-79
2022/11/27 06:23:38;;;;;;;13.50;7.73;;;4.50;99.90;;;;;;5074840;28;20208;-78
2022/11/27 06:26:14;;;;;;;19.13;7.70;;;4.70;99.90;;;;;;5066315;28;20230;-79
2022/11/27 06:28:41;;;;;;;16.60;7.37;;;4.70;99.90;;;;;;5075170;28;20727;-78
2022/11/27 06:31:09;;;;;;;15.87;7.53;;;4.70;99.90;;;;;;5073108;28;20223;-79
2022/11/27 06:33:36;;;;;;;13.07;8.00;;;4.80;99.90;;;;;;5057461;28;20205;-79
2022/11/27 06:36:05;;;;;;;16.27;8.30;;;4.90;99.90;;;;;;5061887;28;20199;-79
2022/11/27 06:38:33;;;;;;;17.60;7.87;;;5.00;99.90;;;;;;5073976;28;20237;-79
2022/11/27 06:41:05;;;;;;;12.80;7.10;;;5.30;99.90;;;;;;5065348;28;20567;-78
2022/11/27 06:43:32;;;;;;;16.63;7.50;;;5.10;99.90;;;;;;5058260;28;20203;-79
2022/11/27 06:46:00;;;;;;;15.90;7.53;;;5.00;99.90;;;;;;5071370;28;20566;-79
2022/11/27 06:48:27;;;;;;;15.77;7.47;;;4.80;99.90;;;;;;5053198;28;20219;-79
2022/11/27 06:50:54;;;;;;;16.97;7.50;;;4.70;99.90;;;;;;5072606;28;20221;-79
2022/11/27 06:53:22;;;;;;;14.03;7.50;;;4.80;99.90;;;;;;5066971;28;20206;-79
2022/11/27 06:55:49;;;;;;;15.93;6.57;;;4.70;99.90;;;;;;5071251;28;20208;-79
2022/11/27 06:58:16;;;;;;;16.33;6.30;;;5.00;99.90;;;;;;5065133;28;20736;-79
2022/11/27 07:00:42;;;;;;;13.03;6.20;;;4.80;99.90;;;;;;5067486;28;20285;-79
2022/11/27 07:03:09;;;;;;;16.73;6.97;;;4.50;99.90;;;;;;5077173;28;20204;-79
2022/11/27 07:05:37;;;;;;;16.03;6.27;;;4.80;99.90;;;;;;5072336;28;20214;-79
2022/11/27 07:08:04;;;;;;;13.03;6.20;;;5.00;99.90;;;;;;5063788;28;20223;-79
2022/11/27 07:10:34;;;;;;;16.53;7.07;;;5.00;99.90;;;;;;5066165;28;20222;-79
2022/11/27 07:13:01;;;;;;;11.43;5.87;;;4.80;99.90;;;;;;5076237;28;20187;-79
2022/11/27 07:15:28;;;;;;;13.20;6.90;;;4.50;99.90;;;;;;5069847;28;20266;-79
2022/11/27 07:17:55;;;;;;;11.40;6.10;;;4.60;99.90;;;;;;5064184;28;20310;-79
2022/11/27 07:20:22;;;;;;;14.07;6.93;;;4.70;99.90;;;;;;5065470;28;20201;-79
2022/11/27 07:22:48;;;;;;;17.80;8.20;;;4.60;99.90;;;;;;5072813;28;20199;-79
2022/11/27 07:25:15;;;;;;;17.97;8.80;;;4.50;99.90;;;;;;5081575;28;20578;-78
2022/11/27 07:27:44;;;;;;;18.87;8.83;;;4.60;99.90;;;;;;5080328;28;20564;-79
2022/11/27 07:30:11;;;;;;;11.13;6.50;;;4.60;99.90;;;;;;5079543;28;20222;-79
2022/11/27 07:32:38;;;;;;;12.17;6.90;;;4.70;99.90;;;;;;5066787;28;20199;-79
2022/11/27 07:35:06;;;;;;;13.37;5.90;;;4.70;99.90;;;;;;5075193;28;20694;-80
2022/11/27 07:37:33;;;;;;;13.17;6.60;;;4.70;99.90;;;;;;5073198;28;20213;-79
2022/11/27 07:40:00;;;;;;;14.20;6.63;;;4.80;99.90;;;;;;5064958;28;20207;-79
2022/11/27 07:42:28;;;;;;;13.47;6.47;;;5.00;99.90;;;;;;5073968;28;20199;-79
2022/11/27 07:44:56;;;;;;;13.03;6.60;;;5.00;99.90;;;;;;5073014;28;20213;-79
2022/11/27 07:47:23;;;;;;;13.20;6.10;;;5.10;99.90;;;;;;5079632;28;20199;-79
2022/11/27 07:49:50;;;;;;;16.67;6.60;;;5.10;99.90;;;;;;5066793;28;20227;-79
2022/11/27 07:52:17;;;;;;;14.10;6.43;;;5.20;99.90;;;;;;5078869;28;20248;-78
2022/11/27 07:54:44;;;;;;;13.33;6.00;;;5.20;99.90;;;;;;5072601;28;20199;-79
2022/11/27 07:57:11;;;;;;;12.83;6.37;;;5.20;99.90;;;;;;5080453;28;20199;-79
2022/11/27 07:59:37;;;;;;;14.93;6.50;;;5.20;99.90;;;;;;5075895;28;20230;-78
2022/11/27 08:02:06;;;;;;;11.60;6.23;;;5.30;99.90;;;;;;5073083;28;20228;-78
2022/11/27 08:04:33;;;;;;;13.43;6.73;;;5.40;99.90;;;;;;5078375;28;20205;-79
2022/11/27 08:06:59;;;;;;;13.07;6.53;;;5.50;99.90;;;;;;5080786;28;20202;-78
2022/11/27 08:09:28;;;;;;;11.13;5.90;;;5.50;99.90;;;;;;5071987;28;20223;-78
2022/11/27 08:11:55;;;;;;;12.60;6.53;;;5.40;99.90;;;;;;5077396;28;20222;-78
2022/11/27 08:14:22;;;;;;;15.87;6.43;;;5.50;99.90;;;;;;5071238;28;20202;-79
2022/11/27 08:16:49;;;;;;;11.93;6.47;;;5.70;99.90;;;;;;5076684;28;20202;-79
2022/11/27 08:19:17;;;;;;;12.67;6.27;;;5.80;99.90;;;;;;5078562;28;20253;-79
2022/11/27 08:21:44;;;;;;;13.73;7.13;;;6.00;99.90;;;;;;5076254;28;20202;-79
2022/11/27 08:24:11;;;;;;;15.27;6.87;;;6.20;99.90;;;;;;5078604;28;20206;-80
2022/11/27 08:26:37;;;;;;;14.57;6.67;;;6.40;99.90;;;;;;5067022;28;20202;-79
2022/11/27 08:29:05;;;;;;;9.07;5.70;;;7.00;99.90;;;;;;5075698;28;20218;-78
2022/11/27 08:31:33;;;;;;;10.97;6.10;;;6.90;99.90;;;;;;5079531;28;20336;-79
2022/11/27 08:34:00;;;;;;;11.90;5.90;;;6.90;99.90;;;;;;5083077;28;20201;-79
2022/11/27 08:36:28;;;;;;;11.47;5.80;;;6.50;99.90;;;;;;5076568;28;20325;-80
2022/11/27 08:38:55;;;;;;;12.93;6.47;;;6.20;99.90;;;;;;5078379;28;20222;-79
2022/11/27 08:41:22;;;;;;;12.70;6.27;;;6.30;99.90;;;;;;5072483;28;20667;-79
2022/11/27 08:43:49;;;;;;;12.57;6.03;;;6.30;99.90;;;;;;5064572;28;20725;-79
2022/11/27 08:46:16;;;;;;;12.03;6.30;;;6.40;99.90;;;;;;5075831;28;20290;-79
2022/11/27 08:48:43;;;;;;;13.43;5.90;;;6.40;99.90;;;;;;5076464;28;20232;-80
2022/11/27 08:51:11;;;;;;;9.30;5.73;;;6.40;99.90;;;;;;5068444;28;20218;-79
2022/11/27 08:53:40;;;;;;;13.00;6.20;;;6.40;99.90;;;;;;5076190;28;20218;-80
2022/11/27 08:56:09;;;;;;;13.10;6.30;;;6.50;99.90;;;;;;5062502;28;20203;-80
2022/11/27 08:58:36;;;;;;;13.57;6.50;;;6.60;99.90;;;;;;5063191;28;20317;-79
2022/11/27 09:01:08;;;;;;;11.67;6.20;;;6.50;99.90;;;;;;5075935;28;20204;-80
2022/11/27 09:03:34;;;;;;;12.23;6.13;;;6.60;99.90;;;;;;5065586;28;20195;-80
2022/11/27 09:06:01;;;;;;;10.83;6.17;;;6.60;99.90;;;;;;5068442;28;20289;-79
2022/11/27 09:08:28;;;;;;;11.17;5.47;;;6.60;99.90;;;;;;5064613;28;20731;-79
2022/11/27 09:11:00;;;;;;;11.93;6.93;;;6.70;99.90;;;;;;5078045;28;20222;-79
2022/11/27 09:13:26;;;;;;;14.77;8.20;;;6.80;99.90;;;;;;5068080;28;20199;-79
2022/11/27 09:15:53;;;;;;;11.80;6.07;;;6.90;99.90;;;;;;5075052;28;20202;-79
2022/11/27 09:18:20;;;;;;;12.37;5.73;;;7.00;99.90;;;;;;5071767;28;20218;-80
2022/11/27 09:20:55;;;;;;;10.47;5.77;;;7.40;99.90;;;;;;5078984;28;20226;-81
2022/11/27 09:23:22;;;;;;;11.17;5.93;;;7.70;99.90;;;;;;5070285;28;20203;-80
2022/11/27 09:25:49;;;;;;;10.67;5.97;;;7.80;99.90;;;;;;5073755;28;20209;-80
2022/11/27 09:28:17;;;;;;;10.27;6.23;;;7.70;99.90;;;;;;5077138;28;20260;-79
2022/11/27 09:30:44;;;;;;;12.13;6.03;;;7.60;99.90;;;;;;5071392;28;20332;-80
2022/11/27 09:33:11;;;;;;;12.23;6.50;;;7.70;99.90;;;;;;5081411;28;20194;-79
2022/11/27 09:35:38;;;;;;;11.30;6.07;;;7.80;99.90;;;;;;5073022;28;20206;-80
2022/11/27 09:38:05;;;;;;;11.30;5.83;;;7.90;99.90;;;;;;5071990;28;20289;-78
2022/11/27 09:40:33;;;;;;;12.33;6.37;;;8.10;99.90;;;;;;5079882;28;20281;-78
2022/11/27 09:43:07;;;;;;;12.83;6.67;;;8.10;99.90;;;;;;5080844;28;20202;-81
2022/11/27 09:45:40;;;;;;;12.67;6.43;;;7.90;99.90;;;;;;5074956;28;20201;-80
2022/11/27 09:48:12;;;;;;;12.63;6.60;;;7.70;99.90;;;;;;5073403;28;20248;-80
2022/11/27 09:50:48;;;;;;;15.63;7.80;;;7.60;99.90;;;;;;5070124;28;20206;-80
2022/11/27 09:53:24;;;;;;;12.07;6.13;;;7.60;99.90;;;;;;5068630;28;20220;-81
2022/11/27 09:55:53;;;;;;;11.57;6.03;;;7.40;99.90;;;;;;5078131;28;20198;-81
2022/11/27 09:58:27;;;;;;;12.50;6.47;;;7.50;99.90;;;;;;5076380;28;20222;-80
2022/11/27 10:00:56;;;;;;;11.80;6.60;;;8.00;99.90;;;;;;5077173;28;20210;-79
2022/11/27 10:03:26;;;;;;;10.63;5.97;;;8.30;99.90;;;;;;5081726;28;20214;-80
2022/11/27 10:06:03;;;;;;;12.43;6.20;;;8.70;99.90;;;;;;5080358;28;20213;-80
2022/11/27 10:08:36;;;;;;;10.37;5.80;;;8.90;99.90;;;;;;5075137;28;20226;-79
2022/11/27 10:11:17;;;;;;;13.37;6.03;;;8.80;99.90;;;;;;5078270;28;20299;-79
2022/11/27 10:14:07;;;;;;;13.43;5.33;;;8.90;99.90;;;;;;5074355;28;20304;-80
2022/11/27 10:16:39;;;;;;;14.57;6.50;;;8.70;99.90;;;;;;5076828;28;20217;-81
2022/11/27 10:19:18;;;;;;;13.07;6.17;;;8.70;99.90;;;;;;5082543;28;20222;-81
2022/11/27 10:21:51;;;;;;;11.43;5.73;;;8.70;99.90;;;;;;5079616;28;20234;-81
2022/11/27 10:24:28;;;;;;;10.00;5.00;;;8.50;99.90;;;;;;5073834;28;20234;-81
2022/11/27 10:26:58;;;;;;;9.00;5.10;;;8.50;99.90;;;;;;5073739;28;20228;-81
2022/11/27 10:29:36;;;;;;;16.97;7.23;;;8.60;99.90;;;;;;5070063;28;20230;-81
2022/11/27 10:32:11;;;;;;;10.57;5.83;;;8.50;99.90;;;;;;5079937;28;20503;-81
2022/11/27 10:34:42;;;;;;;11.73;5.23;;;8.50;99.90;;;;;;5076978;28;20232;-81
2022/11/27 10:37:17;;;;;;;9.87;4.97;;;8.40;99.90;;;;;;5078157;28;20296;-81
2022/11/27 10:39:49;;;;;;;7.93;5.00;;;8.40;99.90;;;;;;5078900;28;20221;-81
2022/11/27 10:42:19;;;;;;;8.63;5.20;;;8.40;99.90;;;;;;5079562;28;20233;-81
2022/11/27 10:44:50;;;;;;;9.93;5.40;;;8.40;99.90;;;;;;5074917;28;20210;-81
2022/11/27 10:47:22;;;;;;;9.90;5.77;;;8.50;99.90;;;;;;5074760;28;20252;-81
2022/11/27 10:49:50;;;;;;;10.40;4.73;;;8.40;99.90;;;;;;5084652;28;20225;-82
2022/11/27 10:52:18;;;;;;;10.97;4.33;;;8.40;99.90;;;;;;5085055;28;20282;-82
2022/11/27 10:54:55;;;;;;;9.70;4.53;;;8.50;99.90;;;;;;5080060;28;20216;-82
2022/11/27 10:57:50;;;;;;;9.20;4.60;;;8.50;99.90;;;;;;5083619;28;20580;-82
2022/11/27 11:00:21;;;;;;;9.00;4.80;;;8.50;99.90;;;;;;5077204;28;20237;-81
2022/11/27 11:02:59;;;;;;;8.93;4.60;;;8.50;99.90;;;;;;5078727;28;20214;-81
2022/11/27 11:05:27;;;;;;;13.60;5.60;;;8.50;99.90;;;;;;5074687;28;20211;-81
2022/11/27 11:08:03;;;;;;;10.93;4.77;;;8.40;99.90;;;;;;5078690;28;20226;-81
2022/11/27 11:10:33;;;;;;;12.87;5.40;;;8.60;99.90;;;;;;5078727;28;20213;-80
2022/11/27 11:13:15;;;;;;;11.43;5.07;;;8.60;99.90;;;;;;5075169;28;20251;-81
2022/11/27 11:15:55;;;;;;;7.87;4.73;;;8.60;99.90;;;;;;5073502;28;20221;-81
2022/11/27 11:18:25;;;;;;;8.17;4.23;;;8.60;99.90;;;;;;5070585;28;20240;-81
2022/11/27 11:20:54;;;;;;;9.43;4.87;;;8.60;99.90;;;;;;5076024;28;20194;-81
2022/11/27 11:23:24;;;;;;;8.63;4.90;;;8.60;99.90;;;;;;5074127;28;20342;-81
2022/11/27 11:25:54;;;;;;;10.40;5.37;;;8.70;99.90;;;;;;5076531;28;20206;-80
2022/11/27 11:28:22;;;;;;;11.97;5.07;;;8.80;99.90;;;;;;5073084;28;20225;-80
2022/11/27 11:30:55;;;;;;;8.30;4.77;;;8.70;99.90;;;;;;5077090;28;20226;-80
2022/11/27 11:33:24;;;;;;;7.63;4.90;;;8.70;99.90;;;;;;5073117;28;20225;-81
2022/11/27 11:35:54;;;;;;;10.13;4.30;;;8.70;99.90;;;;;;5079268;28;20712;-80
2022/11/27 11:38:28;;;;;;;8.80;4.70;;;8.80;99.90;;;;;;5075665;28;20256;-81
2022/11/27 11:41:01;;;;;;;6.80;4.07;;;8.90;99.90;;;;;;5078955;28;20230;-81
2022/11/27 11:43:31;;;;;;;8.27;4.97;;;8.80;99.90;;;;;;5070577;28;20207;-80
2022/11/27 11:46:07;;;;;;;7.87;4.30;;;8.80;99.90;;;;;;5072641;28;20207;-81
2022/11/27 11:48:36;;;;;;;10.47;6.03;;;8.90;99.90;;;;;;5077921;28;20238;-80
2022/11/27 11:51:09;;;;;;;9.40;4.60;;;8.90;99.90;;;;;;5079755;28;20203;-81
2022/11/27 11:53:37;;;;;;;8.40;4.23;;;8.90;99.90;;;;;;5069140;28;20222;-82
2022/11/27 11:56:20;;;;;;;8.17;4.40;;;9.00;99.90;;;;;;5076223;28;20198;-81
2022/11/27 11:58:55;;;;;;;8.90;4.57;;;9.00;99.90;;;;;;5079562;28;20328;-82
2022/11/27 12:01:52;;;;;;;6.77;3.80;;;9.00;99.90;;;;;;5078714;28;20205;-81
2022/11/27 12:04:43;;;;;;;7.97;3.83;;;8.90;99.90;;;;;;5068275;28;20209;-82
2022/11/27 12:07:22;;;;;;;8.90;5.30;;;8.90;99.90;;;;;;5070378;28;20209;-82
2022/11/27 12:09:57;;;;;;;10.93;4.93;;;8.90;99.90;;;;;;5065653;28;20233;-81
2022/11/27 12:12:41;;;;;;;19.30;10.87;;;9.00;99.90;;;;;;5066100;28;20222;-81
2022/11/27 12:15:19;;;;;;;9.73;4.20;;;9.00;99.90;;;;;;5075845;28;20210;-81
2022/11/27 12:17:59;;;;;;;7.83;4.10;;;8.90;99.90;;;;;;5072383;28;20225;-81
2022/11/27 12:20:41;;;;;;;12.53;6.17;;;9.00;99.90;;;;;;5076645;28;20240;-81
2022/11/27 12:23:51;;;;;;;7.03;3.97;;;9.00;99.90;;;;;;5074908;28;20201;-81
2022/11/27 12:26:28;;;;;;;6.50;4.07;;;8.90;99.90;;;;;;5071682;28;20198;-80
2022/11/27 12:29:11;;;;;;;8.77;4.13;;;9.00;99.90;;;;;;5074293;28;20220;-80
2022/11/27 12:31:55;;;;;;;7.13;4.10;;;8.80;99.90;;;;;;5074651;28;20226;-80
2022/11/27 12:34:33;;;;;;;8.33;4.20;;;8.80;99.90;;;;;;5073284;28;20222;-79
2022/11/27 12:37:13;;;;;;;9.17;4.07;;;8.90;99.90;;;;;;5077165;28;20793;-81
2022/11/27 12:39:53;;;;;;;7.13;4.00;;;8.80;99.90;;;;;;5074955;28;20309;-81
2022/11/27 12:42:26;;;;;;;6.80;3.90;;;8.90;99.90;;;;;;5078326;28;20194;-80
2022/11/27 12:45:00;;;;;;;6.33;3.47;;;8.90;99.90;;;;;;5081999;28;20210;-81
2022/11/27 12:47:34;;;;;;;6.57;3.90;;;9.00;99.90;;;;;;5079778;28;20293;-80
2022/11/27 12:50:07;;;;;;;8.07;3.60;;;8.90;99.90;;;;;;5077537;28;20236;-81
2022/11/27 12:52:41;;;;;;;7.13;4.23;;;8.90;99.90;;;;;;5080943;28;20254;-80
2022/11/27 12:55:14;;;;;;;8.07;4.07;;;8.90;99.90;;;;;;5084382;28;20313;-81
2022/11/27 12:57:45;;;;;;;6.97;4.07;;;8.90;99.90;;;;;;5075451;28;20852;-82
2022/11/27 13:00:16;;;;;;;8.93;4.00;;;9.00;99.90;;;;;;5081585;28;20220;-81